sensor_id;sensor_type;location;lat;lon;timestamp;temperature;humidity
16838;DHT22;19510;54.486;9.046;2023-10-19T00:00:16;9.10;99.90
16838;DHT22;19510;54.486;9.046;2023-10-19T00:02:54;9.10;99.90
16838;DHT22;19510;54.486;9.046;2023-10-19T00:05:20;9.10;99.90
16838;DHT22;19510;54.486;9.046;2023-10-19T00:07:46;9.10;99.90
16838;DHT22;19510;54.486;9.046;2023-10-19T00:10:15;9.10;99.90
16838;DHT22;19510;54.486;9.046;2023-10-19T00:12:42;9.10;99.90
16838;DHT22;19510;54.486;9.046;2023-10-19T00:15:10;9.10;99.90
16838;DHT22;19510;54.486;9.046;2023-10-19T00:17:37;9.10;99.90
16838;DHT22;19510;54.486;9.046;2023-10-19T00:20:06;9.10;99.90
16838;DHT22;19510;54.486;9.046;2023-10-19T00:23:13;9.10;99.90
16838;DHT22;19510;54.486;9.046;2023-10-19T00:25:41;9.10;99.90
16838;DHT22;19510;54.486;9.046;2023-10-19T00:28:10;9.10;99.90
16838;DHT22;19510;54.486;9.046;2023-10-19T00:30:38;9.10;99.90
16838;DHT22;19510;54.486;9.046;2023-10-19T00:33:08;9.10;99.90
16838;DHT22;19510;54.486;9.046;2023-10-19T00:35:44;9.10;99.90
16838;DHT22;19510;54.486;9.046;2023-10-19T00:38:21;9.10;99.90
16838;DHT22;19510;54.486;9.046;2023-10-19T00:41:09;9.10;99.90
16838;DHT22;19510;54.486;9.046;2023-10-19T00:43:42;9.10;99.90
16838;DHT22;19510;54.486;9.046;2023-10-19T00:46:09;9.10;99.90
16838;DHT22;19510;54.486;9.046;2023-10-19T00:48:57;9.10;99.90
16838;DHT22;19510;54.486;9.046;2023-10-19T00:51:27;9.10;99.90
16838;DHT22;19510;54.486;9.046;2023-10-19T00:54:26;9.10;99.90
16838;DHT22;19510;54.486;9.046;2023-10-19T00:57:09;9.10;99.90
16838;DHT22;19510;54.486;9.046;2023-10-19T00:59:39;9.10;99.90
16838;DHT22;19510;54.486;9.046;2023-10-19T01:02:26;9.10;99.90
16838;DHT22;19510;54.486;9.046;2023-10-19T01:04:53;9.10;99.90
16838;DHT22;19510;54.486;9.046;2023-10-19T01:07:23;9.10;99.90
16838;DHT22;19510;54.486;9.046;2023-10-19T01:09:52;9.10;99.90
16838;DHT22;19510;54.486;9.046;2023-10-19T01:12:25;9.10;99.90
16838;DHT22;19510;54.486;9.046;2023-10-19T01:15:17;9.10;99.90
16838;DHT22;19510;54.486;9.046;2023-10-19T01:17:45;9.10;99.90
16838;DHT22;19510;54.486;9.046;2023-10-19T01:20:21;9.10;99.90
16838;DHT22;19510;54.486;9.046;2023-10-19T01:22:52;9.00;99.90
16838;DHT22;19510;54.486;9.046;2023-10-19T01:28:33;9.10;99.90
16838;DHT22;19510;54.486;9.046;2023-10-19T01:31:19;9.00;99.90
16838;DHT22;19510;54.486;9.046;2023-10-19T01:34:00;9.10;99.90
16838;DHT22;19510;54.486;9.046;2023-10-19T01:36:32;9.10;99.90
16838;DHT22;19510;54.486;9.046;2023-10-19T01:39:09;9.10;99.90
16838;DHT22;19510;54.486;9.046;2023-10-19T01:41:36;9.10;99.90
16838;DHT22;19510;54.486;9.046;2023-10-19T01:44:02;9.10;99.90
16838;DHT22;19510;54.486;9.046;2023-10-19T01:46:38;9.10;99.90
16838;DHT22;19510;54.486;9.046;2023-10-19T01:49:07;9.10;99.90
16838;DHT22;19510;54.486;9.046;2023-10-19T01:51:35;9.10;99.90
16838;DHT22;19510;54.486;9.046;2023-10-19T01:54:05;9.10;99.90
16838;DHT22;19510;54.486;9.046;2023-10-19T01:56:36;9.10;99.90
16838;DHT22;19510;54.486;9.046;2023-10-19T01:59:04;9.10;99.90
16838;DHT22;19510;54.486;9.046;2023-10-19T02:01:31;9.20;99.90
16838;DHT22;19510;54.486;9.046;2023-10-19T02:04:03;9.20;99.90
16838;DHT22;19510;54.486;9.046;2023-10-19T02:06:31;9.10;99.90
16838;DHT22;19510;54.486;9.046;2023-10-19T02:09:05;9.10;99.90
16838;DHT22;19510;54.486;9.046;2023-10-19T02:11:47;9.20;99.90
16838;DHT22;19510;54.486;9.046;2023-10-19T02:14:17;9.20;99.90
16838;DHT22;19510;54.486;9.046;2023-10-19T02:16:46;9.20;99.90
16838;DHT22;19510;54.486;9.046;2023-10-19T02:19:19;9.20;99.90
16838;DHT22;19510;54.486;9.046;2023-10-19T02:21:49;9.20;99.90
16838;DHT22;19510;54.486;9.046;2023-10-19T02:24:15;9.20;99.90
16838;DHT22;19510;54.486;9.046;2023-10-19T02:26:43;9.20;99.90
16838;DHT22;19510;54.486;9.046;2023-10-19T02:29:10;9.20;99.90
16838;DHT22;19510;54.486;9.046;2023-10-19T02:31:44;9.20;99.90
16838;DHT22;19510;54.486;9.046;2023-10-19T02:34:12;9.20;99.90
16838;DHT22;19510;54.486;9.046;2023-10-19T02:36:45;9.30;99.90
16838;DHT22;19510;54.486;9.046;2023-10-19T02:39:12;9.30;99.90
16838;DHT22;19510;54.486;9.046;2023-10-19T02:41:44;9.30;99.90
16838;DHT22;19510;54.486;9.046;2023-10-19T02:44:16;9.30;99.90
16838;DHT22;19510;54.486;9.046;2023-10-19T02:46:43;9.30;99.90
16838;DHT22;19510;54.486;9.046;2023-10-19T02:49:11;9.30;99.90
16838;DHT22;19510;54.486;9.046;2023-10-19T02:51:44;9.30;99.90
16838;DHT22;19510;54.486;9.046;2023-10-19T02:54:11;9.40;99.90
16838;DHT22;19510;54.486;9.046;2023-10-19T02:56:48;9.40;99.90
16838;DHT22;19510;54.486;9.046;2023-10-19T02:59:15;9.40;99.90
16838;DHT22;19510;54.486;9.046;2023-10-19T03:01:42;9.40;99.90
16838;DHT22;19510;54.486;9.046;2023-10-19T03:04:11;9.40;99.90
16838;DHT22;19510;54.486;9.046;2023-10-19T03:06:41;9.40;99.90
16838;DHT22;19510;54.486;9.046;2023-10-19T03:09:08;9.40;99.90
16838;DHT22;19510;54.486;9.046;2023-10-19T03:11:59;9.40;99.90
16838;DHT22;19510;54.486;9.046;2023-10-19T03:14:29;9.40;99.90
16838;DHT22;19510;54.486;9.046;2023-10-19T03:16:58;9.50;99.90
16838;DHT22;19510;54.486;9.046;2023-10-19T03:19:26;9.50;99.90
16838;DHT22;19510;54.486;9.046;2023-10-19T03:21:55;9.50;99.90
16838;DHT22;19510;54.486;9.046;2023-10-19T03:24:21;9.50;99.90
16838;DHT22;19510;54.486;9.046;2023-10-19T03:27:13;9.50;99.90
16838;DHT22;19510;54.486;9.046;2023-10-19T03:29:47;9.50;99.90
16838;DHT22;19510;54.486;9.046;2023-10-19T03:32:25;9.50;99.90
16838;DHT22;19510;54.486;9.046;2023-10-19T03:35:00;9.50;99.90
16838;DHT22;19510;54.486;9.046;2023-10-19T03:37:27;9.50;99.90
16838;DHT22;19510;54.486;9.046;2023-10-19T03:39:55;9.50;99.90
16838;DHT22;19510;54.486;9.046;2023-10-19T03:42:22;9.60;99.90
16838;DHT22;19510;54.486;9.046;2023-10-19T03:44:51;9.50;99.90
16838;DHT22;19510;54.486;9.046;2023-10-19T03:47:20;9.60;99.90
16838;DHT22;19510;54.486;9.046;2023-10-19T03:49:51;9.60;99.90
16838;DHT22;19510;54.486;9.046;2023-10-19T03:52:17;9.60;99.90
16838;DHT22;19510;54.486;9.046;2023-10-19T03:54:43;9.60;99.90
16838;DHT22;19510;54.486;9.046;2023-10-19T03:57:11;9.60;99.90
16838;DHT22;19510;54.486;9.046;2023-10-19T03:59:40;9.60;99.90
16838;DHT22;19510;54.486;9.046;2023-10-19T04:02:12;9.60;99.90
16838;DHT22;19510;54.486;9.046;2023-10-19T04:04:44;9.60;99.90
16838;DHT22;19510;54.486;9.046;2023-10-19T04:07:17;9.60;99.90
16838;DHT22;19510;54.486;9.046;2023-10-19T04:09:49;9.60;99.90
16838;DHT22;19510;54.486;9.046;2023-10-19T04:12:39;9.60;99.90
16838;DHT22;19510;54.486;9.046;2023-10-19T04:15:08;9.60;99.90
16838;DHT22;19510;54.486;9.046;2023-10-19T04:17:44;9.60;99.90
16838;DHT22;19510;54.486;9.046;2023-10-19T04:20:11;9.60;99.90
16838;DHT22;19510;54.486;9.046;2023-10-19T04:22:47;9.60;99.90
16838;DHT22;19510;54.486;9.046;2023-10-19T04:25:14;9.60;99.90
16838;DHT22;19510;54.486;9.046;2023-10-19T04:27:44;9.60;99.90
16838;DHT22;19510;54.486;9.046;2023-10-19T04:30:12;9.60;99.90
16838;DHT22;19510;54.486;9.046;2023-10-19T04:32:45;9.60;99.90
16838;DHT22;19510;54.486;9.046;2023-10-19T04:35:15;9.60;99.90
16838;DHT22;19510;54.486;9.046;2023-10-19T04:37:53;9.60;99.90
16838;DHT22;19510;54.486;9.046;2023-10-19T04:40:20;9.60;99.90
16838;DHT22;19510;54.486;9.046;2023-10-19T04:42:50;9.60;99.90
16838;DHT22;19510;54.486;9.046;2023-10-19T04:45:18;9.60;99.90
16838;DHT22;19510;54.486;9.046;2023-10-19T04:47:44;9.60;99.90
16838;DHT22;19510;54.486;9.046;2023-10-19T04:50:10;9.60;99.90
16838;DHT22;19510;54.486;9.046;2023-10-19T04:52:36;9.60;99.90
16838;DHT22;19510;54.486;9.046;2023-10-19T04:55:02;9.60;99.90
16838;DHT22;19510;54.486;9.046;2023-10-19T04:57:30;9.60;99.90
16838;DHT22;19510;54.486;9.046;2023-10-19T04:59:57;9.60;99.90
16838;DHT22;19510;54.486;9.046;2023-10-19T05:02:23;9.60;99.90
16838;DHT22;19510;54.486;9.046;2023-10-19T05:04:49;9.60;99.90
16838;DHT22;19510;54.486;9.046;2023-10-19T05:07:20;9.70;99.90
16838;DHT22;19510;54.486;9.046;2023-10-19T05:09:46;9.70;99.90
16838;DHT22;19510;54.486;9.046;2023-10-19T05:12:14;9.60;99.90
16838;DHT22;19510;54.486;9.046;2023-10-19T05:14:43;9.70;99.90
16838;DHT22;19510;54.486;9.046;2023-10-19T05:17:09;9.70;99.90
16838;DHT22;19510;54.486;9.046;2023-10-19T05:19:39;9.70;99.90
16838;DHT22;19510;54.486;9.046;2023-10-19T05:22:06;9.70;99.90
16838;DHT22;19510;54.486;9.046;2023-10-19T05:24:32;9.70;99.90
16838;DHT22;19510;54.486;9.046;2023-10-19T05:27:00;9.70;99.90
16838;DHT22;19510;54.486;9.046;2023-10-19T05:29:26;9.70;99.90
16838;DHT22;19510;54.486;9.046;2023-10-19T05:31:53;9.70;99.90
16838;DHT22;19510;54.486;9.046;2023-10-19T05:34:23;9.70;99.90
16838;DHT22;19510;54.486;9.046;2023-10-19T05:36:49;9.70;99.90
16838;DHT22;19510;54.486;9.046;2023-10-19T05:39:18;9.70;99.90
16838;DHT22;19510;54.486;9.046;2023-10-19T05:41:44;9.70;99.90
16838;DHT22;19510;54.486;9.046;2023-10-19T05:44:10;9.70;99.90
16838;DHT22;19510;54.486;9.046;2023-10-19T05:46:36;9.70;99.90
16838;DHT22;19510;54.486;9.046;2023-10-19T05:49:02;9.70;99.90
16838;DHT22;19510;54.486;9.046;2023-10-19T05:51:30;9.70;99.90
16838;DHT22;19510;54.486;9.046;2023-10-19T05:53:56;9.70;99.90
16838;DHT22;19510;54.486;9.046;2023-10-19T05:56:33;9.70;99.90
16838;DHT22;19510;54.486;9.046;2023-10-19T05:59:01;9.70;99.90
16838;DHT22;19510;54.486;9.046;2023-10-19T06:01:27;9.80;99.90
16838;DHT22;19510;54.486;9.046;2023-10-19T06:03:53;9.80;99.90
16838;DHT22;19510;54.486;9.046;2023-10-19T06:06:23;9.70;99.90
16838;DHT22;19510;54.486;9.046;2023-10-19T06:08:49;9.70;99.90
16838;DHT22;19510;54.486;9.046;2023-10-19T06:11:19;9.70;99.90
16838;DHT22;19510;54.486;9.046;2023-10-19T06:13:45;9.70;99.90
16838;DHT22;19510;54.486;9.046;2023-10-19T06:16:11;9.80;99.90
16838;DHT22;19510;54.486;9.046;2023-10-19T06:18:37;9.80;99.90
16838;DHT22;19510;54.486;9.046;2023-10-19T06:21:05;9.80;99.90
16838;DHT22;19510;54.486;9.046;2023-10-19T06:23:33;9.80;99.90
16838;DHT22;19510;54.486;9.046;2023-10-19T06:26:11;9.80;99.90
16838;DHT22;19510;54.486;9.046;2023-10-19T06:28:40;9.80;99.90
16838;DHT22;19510;54.486;9.046;2023-10-19T06:31:06;9.80;99.90
16838;DHT22;19510;54.486;9.046;2023-10-19T06:33:32;9.70;99.90
16838;DHT22;19510;54.486;9.046;2023-10-19T06:36:02;9.70;99.90
16838;DHT22;19510;54.486;9.046;2023-10-19T06:38:31;9.70;99.90
16838;DHT22;19510;54.486;9.046;2023-10-19T06:40:57;9.70;99.90
16838;DHT22;19510;54.486;9.046;2023-10-19T06:43:25;9.60;99.90
16838;DHT22;19510;54.486;9.046;2023-10-19T06:45:55;9.50;99.90
16838;DHT22;19510;54.486;9.046;2023-10-19T06:48:22;9.50;99.90
16838;DHT22;19510;54.486;9.046;2023-10-19T06:50:48;9.50;99.90
16838;DHT22;19510;54.486;9.046;2023-10-19T06:53:14;9.50;99.90
16838;DHT22;19510;54.486;9.046;2023-10-19T06:55:40;9.40;99.90
16838;DHT22;19510;54.486;9.046;2023-10-19T06:58:08;9.40;99.90
16838;DHT22;19510;54.486;9.046;2023-10-19T07:00:35;9.40;99.90
16838;DHT22;19510;54.486;9.046;2023-10-19T07:03:07;9.40;99.90
16838;DHT22;19510;54.486;9.046;2023-10-19T07:05:33;9.30;99.90
16838;DHT22;19510;54.486;9.046;2023-10-19T07:08:00;9.30;99.90
16838;DHT22;19510;54.486;9.046;2023-10-19T07:10:27;9.30;99.90
16838;DHT22;19510;54.486;9.046;2023-10-19T07:12:54;9.30;99.90
16838;DHT22;19510;54.486;9.046;2023-10-19T07:15:23;9.30;99.90
16838;DHT22;19510;54.486;9.046;2023-10-19T07:17:52;9.30;99.90
16838;DHT22;19510;54.486;9.046;2023-10-19T07:20:19;9.30;99.90
16838;DHT22;19510;54.486;9.046;2023-10-19T07:22:53;9.30;99.90
16838;DHT22;19510;54.486;9.046;2023-10-19T07:25:20;9.30;99.90
16838;DHT22;19510;54.486;9.046;2023-10-19T07:27:47;9.30;99.90
16838;DHT22;19510;54.486;9.046;2023-10-19T07:30:13;9.30;99.90
16838;DHT22;19510;54.486;9.046;2023-10-19T07:32:43;9.30;99.90
16838;DHT22;19510;54.486;9.046;2023-10-19T07:35:11;9.20;99.90
16838;DHT22;19510;54.486;9.046;2023-10-19T07:37:36;9.30;99.90
16838;DHT22;19510;54.486;9.046;2023-10-19T07:40:04;9.20;99.90
16838;DHT22;19510;54.486;9.046;2023-10-19T07:42:33;9.30;99.90
16838;DHT22;19510;54.486;9.046;2023-10-19T07:45:01;9.30;99.90
16838;DHT22;19510;54.486;9.046;2023-10-19T07:47:29;9.30;99.90
16838;DHT22;19510;54.486;9.046;2023-10-19T07:49:55;9.30;99.90
16838;DHT22;19510;54.486;9.046;2023-10-19T07:52:22;9.30;99.90
16838;DHT22;19510;54.486;9.046;2023-10-19T07:54:49;9.30;99.90
16838;DHT22;19510;54.486;9.046;2023-10-19T07:57:17;9.30;99.90
16838;DHT22;19510;54.486;9.046;2023-10-19T07:59:47;9.30;99.90
16838;DHT22;19510;54.486;9.046;2023-10-19T08:02:13;9.30;99.90
16838;DHT22;19510;54.486;9.046;2023-10-19T08:04:39;9.30;99.90
16838;DHT22;19510;54.486;9.046;2023-10-19T08:07:04;9.30;99.90
16838;DHT22;19510;54.486;9.046;2023-10-19T08:09:30;9.30;99.90
16838;DHT22;19510;54.486;9.046;2023-10-19T08:12:01;9.30;99.90
16838;DHT22;19510;54.486;9.046;2023-10-19T08:14:31;9.30;99.90
16838;DHT22;19510;54.486;9.046;2023-10-19T08:17:01;9.30;99.90
16838;DHT22;19510;54.486;9.046;2023-10-19T08:19:29;9.30;99.90
16838;DHT22;19510;54.486;9.046;2023-10-19T08:21:58;9.40;99.90
16838;DHT22;19510;54.486;9.046;2023-10-19T08:24:24;9.40;99.90
16838;DHT22;19510;54.486;9.046;2023-10-19T08:26:54;9.30;99.90
16838;DHT22;19510;54.486;9.046;2023-10-19T08:29:20;9.30;99.90
16838;DHT22;19510;54.486;9.046;2023-10-19T08:31:46;9.40;99.90
16838;DHT22;19510;54.486;9.046;2023-10-19T08:34:12;9.40;99.90
16838;DHT22;19510;54.486;9.046;2023-10-19T08:36:39;9.40;99.90
16838;DHT22;19510;54.486;9.046;2023-10-19T08:39:09;9.30;99.90
16838;DHT22;19510;54.486;9.046;2023-10-19T08:41:40;9.30;99.90
16838;DHT22;19510;54.486;9.046;2023-10-19T08:44:07;9.40;99.90
16838;DHT22;19510;54.486;9.046;2023-10-19T08:46:45;9.40;99.90
16838;DHT22;19510;54.486;9.046;2023-10-19T08:49:19;9.40;99.90
16838;DHT22;19510;54.486;9.046;2023-10-19T08:51:54;9.40;99.90
16838;DHT22;19510;54.486;9.046;2023-10-19T08:54:23;9.40;99.90
16838;DHT22;19510;54.486;9.046;2023-10-19T08:56:49;9.40;99.90
16838;DHT22;19510;54.486;9.046;2023-10-19T08:59:14;9.40;99.90
16838;DHT22;19510;54.486;9.046;2023-10-19T09:01:41;9.40;99.90
16838;DHT22;19510;54.486;9.046;2023-10-19T09:04:13;9.40;99.90
16838;DHT22;19510;54.486;9.046;2023-10-19T09:06:40;9.40;99.90
16838;DHT22;19510;54.486;9.046;2023-10-19T09:09:10;9.40;99.90
16838;DHT22;19510;54.486;9.046;2023-10-19T09:11:45;9.40;99.90
16838;DHT22;19510;54.486;9.046;2023-10-19T09:14:12;9.40;99.90
16838;DHT22;19510;54.486;9.046;2023-10-19T09:16:56;9.50;99.90
16838;DHT22;19510;54.486;9.046;2023-10-19T09:19:43;9.50;99.90
16838;DHT22;19510;54.486;9.046;2023-10-19T09:22:10;9.50;99.90
16838;DHT22;19510;54.486;9.046;2023-10-19T09:24:51;9.50;99.90
16838;DHT22;19510;54.486;9.046;2023-10-19T09:27:21;9.50;99.90
16838;DHT22;19510;54.486;9.046;2023-10-19T09:29:50;9.50;99.90
16838;DHT22;19510;54.486;9.046;2023-10-19T09:32:18;9.50;99.90
16838;DHT22;19510;54.486;9.046;2023-10-19T09:34:47;9.60;99.90
16838;DHT22;19510;54.486;9.046;2023-10-19T09:37:16;9.60;99.90
16838;DHT22;19510;54.486;9.046;2023-10-19T09:39:41;9.60;99.90
16838;DHT22;19510;54.486;9.046;2023-10-19T09:42:09;9.60;99.90
16838;DHT22;19510;54.486;9.046;2023-10-19T09:44:48;9.60;99.90
16838;DHT22;19510;54.486;9.046;2023-10-19T09:47:38;9.60;99.90
16838;DHT22;19510;54.486;9.046;2023-10-19T09:50:05;9.50;99.90
16838;DHT22;19510;54.486;9.046;2023-10-19T09:52:33;9.50;99.90
16838;DHT22;19510;54.486;9.046;2023-10-19T09:55:06;9.50;99.90
16838;DHT22;19510;54.486;9.046;2023-10-19T09:57:50;9.60;99.90
16838;DHT22;19510;54.486;9.046;2023-10-19T10:00:17;9.60;99.90
16838;DHT22;19510;54.486;9.046;2023-10-19T10:02:50;9.60;99.90
16838;DHT22;19510;54.486;9.046;2023-10-19T10:05:45;9.60;99.90
16838;DHT22;19510;54.486;9.046;2023-10-19T10:08:35;9.60;99.90
16838;DHT22;19510;54.486;9.046;2023-10-19T10:11:23;9.50;99.90
16838;DHT22;19510;54.486;9.046;2023-10-19T10:13:50;9.50;99.90
16838;DHT22;19510;54.486;9.046;2023-10-19T10:16:24;9.50;99.90
16838;DHT22;19510;54.486;9.046;2023-10-19T10:18:51;9.50;99.90
16838;DHT22;19510;54.486;9.046;2023-10-19T10:21:19;9.50;99.90
16838;DHT22;19510;54.486;9.046;2023-10-19T10:23:56;9.50;99.90
16838;DHT22;19510;54.486;9.046;2023-10-19T10:26:26;9.50;99.90
16838;DHT22;19510;54.486;9.046;2023-10-19T10:29:12;9.50;99.90
16838;DHT22;19510;54.486;9.046;2023-10-19T10:31:57;9.50;99.90
16838;DHT22;19510;54.486;9.046;2023-10-19T10:37:12;9.50;99.90
16838;DHT22;19510;54.486;9.046;2023-10-19T10:39:40;9.50;99.90
16838;DHT22;19510;54.486;9.046;2023-10-19T10:42:10;9.50;99.90
16838;DHT22;19510;54.486;9.046;2023-10-19T10:44:48;9.60;99.90
16838;DHT22;19510;54.486;9.046;2023-10-19T10:47:20;9.50;99.90
16838;DHT22;19510;54.486;9.046;2023-10-19T10:49:52;9.60;99.90
16838;DHT22;19510;54.486;9.046;2023-10-19T10:55:36;9.60;99.90
16838;DHT22;19510;54.486;9.046;2023-10-19T10:57:44;9.60;99.90
16838;DHT22;19510;54.486;9.046;2023-10-19T11:00:14;9.60;99.90
16838;DHT22;19510;54.486;9.046;2023-10-19T11:02:45;9.70;99.90
16838;DHT22;19510;54.486;9.046;2023-10-19T11:05:16;9.70;99.90
16838;DHT22;19510;54.486;9.046;2023-10-19T11:08:23;9.70;99.90
16838;DHT22;19510;54.486;9.046;2023-10-19T11:10:48;9.70;99.90
16838;DHT22;19510;54.486;9.046;2023-10-19T11:13:15;9.80;99.90
16838;DHT22;19510;54.486;9.046;2023-10-19T11:15:55;9.80;99.90
16838;DHT22;19510;54.486;9.046;2023-10-19T11:18:38;9.90;99.90
16838;DHT22;19510;54.486;9.046;2023-10-19T11:21:12;9.90;99.90
16838;DHT22;19510;54.486;9.046;2023-10-19T11:26:23;9.90;99.90
16838;DHT22;19510;54.486;9.046;2023-10-19T11:29:02;10.00;99.90
16838;DHT22;19510;54.486;9.046;2023-10-19T11:31:29;10.00;99.90
16838;DHT22;19510;54.486;9.046;2023-10-19T11:34:03;9.90;99.90
16838;DHT22;19510;54.486;9.046;2023-10-19T11:36:33;9.90;99.90
16838;DHT22;19510;54.486;9.046;2023-10-19T11:39:00;9.90;99.90
16838;DHT22;19510;54.486;9.046;2023-10-19T11:41:25;9.90;99.90
16838;DHT22;19510;54.486;9.046;2023-10-19T11:43:51;10.00;99.90
16838;DHT22;19510;54.486;9.046;2023-10-19T11:46:17;10.00;99.90
16838;DHT22;19510;54.486;9.046;2023-10-19T11:48:44;10.00;99.90
16838;DHT22;19510;54.486;9.046;2023-10-19T11:51:10;10.00;99.90
16838;DHT22;19510;54.486;9.046;2023-10-19T11:53:41;10.10;99.90
16838;DHT22;19510;54.486;9.046;2023-10-19T11:56:10;10.10;99.90
16838;DHT22;19510;54.486;9.046;2023-10-19T11:58:40;10.10;99.90
16838;DHT22;19510;54.486;9.046;2023-10-19T12:01:08;10.10;99.90
16838;DHT22;19510;54.486;9.046;2023-10-19T12:03:36;10.10;99.90
16838;DHT22;19510;54.486;9.046;2023-10-19T12:06:09;10.10;99.90
16838;DHT22;19510;54.486;9.046;2023-10-19T12:08:36;10.10;99.90
16838;DHT22;19510;54.486;9.046;2023-10-19T12:11:03;10.20;99.90
16838;DHT22;19510;54.486;9.046;2023-10-19T12:13:30;10.20;99.90
16838;DHT22;19510;54.486;9.046;2023-10-19T12:15:57;10.10;99.90
16838;DHT22;19510;54.486;9.046;2023-10-19T12:18:23;10.10;99.90
16838;DHT22;19510;54.486;9.046;2023-10-19T12:20:53;10.10;99.90
16838;DHT22;19510;54.486;9.046;2023-10-19T12:23:22;10.10;99.90
16838;DHT22;19510;54.486;9.046;2023-10-19T12:25:51;10.10;99.90
16838;DHT22;19510;54.486;9.046;2023-10-19T12:28:17;10.00;99.90
16838;DHT22;19510;54.486;9.046;2023-10-19T12:30:42;10.10;99.90
16838;DHT22;19510;54.486;9.046;2023-10-19T12:33:08;10.10;99.90
16838;DHT22;19510;54.486;9.046;2023-10-19T12:35:41;10.10;99.90
16838;DHT22;19510;54.486;9.046;2023-10-19T12:38:11;10.00;99.90
16838;DHT22;19510;54.486;9.046;2023-10-19T12:40:42;10.10;99.90
16838;DHT22;19510;54.486;9.046;2023-10-19T12:43:08;10.10;99.90
16838;DHT22;19510;54.486;9.046;2023-10-19T12:45:36;10.10;99.90
16838;DHT22;19510;54.486;9.046;2023-10-19T12:48:03;10.10;99.90
16838;DHT22;19510;54.486;9.046;2023-10-19T12:50:33;10.10;99.90
16838;DHT22;19510;54.486;9.046;2023-10-19T12:53:02;10.10;99.90
16838;DHT22;19510;54.486;9.046;2023-10-19T12:55:28;10.20;99.90
16838;DHT22;19510;54.486;9.046;2023-10-19T12:57:57;10.20;99.90
16838;DHT22;19510;54.486;9.046;2023-10-19T13:00:23;10.20;99.90
16838;DHT22;19510;54.486;9.046;2023-10-19T13:02:55;10.30;99.90
16838;DHT22;19510;54.486;9.046;2023-10-19T13:05:27;10.20;99.90
16838;DHT22;19510;54.486;9.046;2023-10-19T13:07:54;10.30;99.90
16838;DHT22;19510;54.486;9.046;2023-10-19T13:10:28;10.30;99.90
16838;DHT22;19510;54.486;9.046;2023-10-19T13:13:01;10.30;99.90
16838;DHT22;19510;54.486;9.046;2023-10-19T13:15:34;10.30;99.90
16838;DHT22;19510;54.486;9.046;2023-10-19T13:18:01;10.30;99.90
16838;DHT22;19510;54.486;9.046;2023-10-19T13:20:28;10.30;99.90
16838;DHT22;19510;54.486;9.046;2023-10-19T13:23:02;10.30;99.90
16838;DHT22;19510;54.486;9.046;2023-10-19T13:25:31;10.20;99.90
16838;DHT22;19510;54.486;9.046;2023-10-19T13:28:19;10.30;99.90
16838;DHT22;19510;54.486;9.046;2023-10-19T13:30:50;10.30;99.90
16838;DHT22;19510;54.486;9.046;2023-10-19T13:33:17;10.30;99.90
16838;DHT22;19510;54.486;9.046;2023-10-19T13:35:45;10.30;99.90
16838;DHT22;19510;54.486;9.046;2023-10-19T13:38:12;10.30;99.90
16838;DHT22;19510;54.486;9.046;2023-10-19T13:40:45;10.30;99.90
16838;DHT22;19510;54.486;9.046;2023-10-19T13:43:14;10.30;99.90
16838;DHT22;19510;54.486;9.046;2023-10-19T13:45:42;10.30;99.90
16838;DHT22;19510;54.486;9.046;2023-10-19T13:48:09;10.30;99.90
16838;DHT22;19510;54.486;9.046;2023-10-19T13:50:47;10.30;99.90
16838;DHT22;19510;54.486;9.046;2023-10-19T13:53:16;10.30;99.90
16838;DHT22;19510;54.486;9.046;2023-10-19T13:55:45;10.30;99.90
16838;DHT22;19510;54.486;9.046;2023-10-19T13:58:13;10.30;99.90
16838;DHT22;19510;54.486;9.046;2023-10-19T14:00:41;10.30;99.90
16838;DHT22;19510;54.486;9.046;2023-10-19T14:03:09;10.30;99.90
16838;DHT22;19510;54.486;9.046;2023-10-19T14:05:40;10.30;99.90
16838;DHT22;19510;54.486;9.046;2023-10-19T14:08:08;10.30;99.90
16838;DHT22;19510;54.486;9.046;2023-10-19T14:10:35;10.30;99.90
16838;DHT22;19510;54.486;9.046;2023-10-19T14:13:01;10.30;99.90
16838;DHT22;19510;54.486;9.046;2023-10-19T14:15:27;10.40;99.90
16838;DHT22;19510;54.486;9.046;2023-10-19T14:17:59;10.30;99.90
16838;DHT22;19510;54.486;9.046;2023-10-19T14:20:28;10.30;99.90
16838;DHT22;19510;54.486;9.046;2023-10-19T14:22:54;10.30;99.90
16838;DHT22;19510;54.486;9.046;2023-10-19T14:25:23;10.30;99.90
16838;DHT22;19510;54.486;9.046;2023-10-19T14:27:50;10.40;99.90
16838;DHT22;19510;54.486;9.046;2023-10-19T14:30:27;10.40;99.90
16838;DHT22;19510;54.486;9.046;2023-10-19T14:32:58;10.40;99.90
16838;DHT22;19510;54.486;9.046;2023-10-19T14:35:24;10.40;99.90
16838;DHT22;19510;54.486;9.046;2023-10-19T14:37:55;10.40;99.90
16838;DHT22;19510;54.486;9.046;2023-10-19T14:40:23;10.40;99.90
16838;DHT22;19510;54.486;9.046;2023-10-19T14:42:50;10.40;99.90
16838;DHT22;19510;54.486;9.046;2023-10-19T14:45:19;10.40;99.90
16838;DHT22;19510;54.486;9.046;2023-10-19T14:47:52;10.40;99.90
16838;DHT22;19510;54.486;9.046;2023-10-19T14:50:18;10.40;99.90
16838;DHT22;19510;54.486;9.046;2023-10-19T14:52:46;10.40;99.90
16838;DHT22;19510;54.486;9.046;2023-10-19T14:55:13;10.40;99.90
16838;DHT22;19510;54.486;9.046;2023-10-19T14:57:42;10.40;99.90
16838;DHT22;19510;54.486;9.046;2023-10-19T15:00:09;10.50;99.90
16838;DHT22;19510;54.486;9.046;2023-10-19T15:02:51;10.40;99.90
16838;DHT22;19510;54.486;9.046;2023-10-19T15:05:17;10.50;99.90
16838;DHT22;19510;54.486;9.046;2023-10-19T15:07:47;10.50;99.90
16838;DHT22;19510;54.486;9.046;2023-10-19T15:10:17;10.50;99.90
16838;DHT22;19510;54.486;9.046;2023-10-19T15:12:43;10.50;99.90
16838;DHT22;19510;54.486;9.046;2023-10-19T15:15:10;10.50;99.90
16838;DHT22;19510;54.486;9.046;2023-10-19T15:17:39;10.50;99.90
16838;DHT22;19510;54.486;9.046;2023-10-19T15:20:06;10.50;99.90
16838;DHT22;19510;54.486;9.046;2023-10-19T15:22:33;10.50;99.90
16838;DHT22;19510;54.486;9.046;2023-10-19T15:24:59;10.50;99.90
16838;DHT22;19510;54.486;9.046;2023-10-19T15:27:25;10.50;99.90
16838;DHT22;19510;54.486;9.046;2023-10-19T15:29:51;10.50;99.90
16838;DHT22;19510;54.486;9.046;2023-10-19T15:32:19;10.50;99.90
16838;DHT22;19510;54.486;9.046;2023-10-19T15:34:44;10.50;99.90
16838;DHT22;19510;54.486;9.046;2023-10-19T15:37:12;10.50;99.90
16838;DHT22;19510;54.486;9.046;2023-10-19T15:39:37;10.50;99.90
16838;DHT22;19510;54.486;9.046;2023-10-19T15:42:08;10.50;99.90
16838;DHT22;19510;54.486;9.046;2023-10-19T15:44:36;10.50;99.90
16838;DHT22;19510;54.486;9.046;2023-10-19T15:47:02;10.50;99.90
16838;DHT22;19510;54.486;9.046;2023-10-19T15:49:51;10.50;99.90
16838;DHT22;19510;54.486;9.046;2023-10-19T15:52:19;10.50;99.90
16838;DHT22;19510;54.486;9.046;2023-10-19T15:54:46;10.40;99.90
16838;DHT22;19510;54.486;9.046;2023-10-19T15:57:12;10.50;99.90
16838;DHT22;19510;54.486;9.046;2023-10-19T15:59:38;10.40;99.90
16838;DHT22;19510;54.486;9.046;2023-10-19T16:02:04;10.40;99.90
16838;DHT22;19510;54.486;9.046;2023-10-19T16:04:30;10.40;99.90
16838;DHT22;19510;54.486;9.046;2023-10-19T16:06:56;10.40;99.90
16838;DHT22;19510;54.486;9.046;2023-10-19T16:09:21;10.40;99.90
16838;DHT22;19510;54.486;9.046;2023-10-19T16:11:47;10.40;99.90